Time;durP1;ratioP1;P1;durP2;ratioP2;P2;SDS_P1;SDS_P2;PMS_P1;PMS_P2;Temp;Humidity;BMP_temperature;BMP_pressure;BME280_temperature;BME280_humidity;BME280_pressure;Samples;Min_cycle;Max_cycle;Signal;HPM_P1;HPM_P2
2023/03/13 00:02:44;;;;;;;22.95;16.65;;;;;;;;;;10365023;28;20415;-85
2023/03/13 00:07:47;;;;;;;24.33;17.00;;;;;;;;;;10367013;28;20443;-85
2023/03/13 00:12:49;;;;;;;22.33;17.27;;;;;;;;;;10357765;28;20582;-84
2023/03/13 00:17:51;;;;;;;21.87;17.20;;;;;;;;;;10366845;28;20405;-85
2023/03/13 00:22:54;;;;;;;23.70;18.10;;;;;;;;;;10365518;28;20432;-85
2023/03/13 00:27:56;;;;;;;22.97;17.20;;;;;;;;;;10361601;28;20416;-85
2023/03/13 00:32:58;;;;;;;24.25;16.85;;;;;;;;;;10366155;28;20888;-85
2023/03/13 00:38:01;;;;;;;22.52;17.10;;;;;;;;;;10365936;28;20976;-84
2023/03/13 00:43:03;;;;;;;23.07;16.40;;;;;;;;;;10365280;28;20540;-85
2023/03/13 00:48:05;;;;;;;25.47;17.10;;;;;;;;;;10364876;28;20428;-85
2023/03/13 00:53:09;;;;;;;24.20;17.60;;;;;;;;;;10365970;28;20450;-85
2023/03/13 00:58:10;;;;;;;25.80;17.50;;;;;;;;;;10365555;28;20458;-84
2023/03/13 01:03:13;;;;;;;26.33;18.57;;;;;;;;;;10361327;28;20549;-85
2023/03/13 01:08:16;;;;;;;26.50;17.80;;;;;;;;;;10366166;28;20446;-84
2023/03/13 01:13:18;;;;;;;27.67;18.45;;;;;;;;;;10366112;28;20877;-85
2023/03/13 01:18:20;;;;;;;24.67;17.70;;;;;;;;;;10366075;28;20447;-84
2023/03/13 01:23:23;;;;;;;23.13;16.73;;;;;;;;;;10365159;28;20423;-85
2023/03/13 01:28:26;;;;;;;20.10;14.13;;;;;;;;;;10365479;28;20412;-85
2023/03/13 01:33:28;;;;;;;16.02;12.57;;;;;;;;;;10364880;28;20528;-84
2023/03/13 01:38:32;;;;;;;17.63;12.23;;;;;;;;;;10365721;28;20426;-85
2023/03/13 01:43:36;;;;;;;17.70;12.98;;;;;;;;;;10366554;28;20980;-85
2023/03/13 01:48:43;;;;;;;17.58;12.50;;;;;;;;;;10372183;28;20454;-85
2023/03/13 01:53:50;;;;;;;18.35;13.40;;;;;;;;;;10371596;28;20464;-85
2023/03/13 01:58:53;;;;;;;18.40;12.38;;;;;;;;;;10371167;28;20503;-84
2023/03/13 02:03:56;;;;;;;15.43;12.10;;;;;;;;;;10371624;28;21007;-85
2023/03/13 02:09:07;;;;;;;15.37;11.73;;;;;;;;;;10371783;28;20538;-84
2023/03/13 02:14:10;;;;;;;15.63;12.20;;;;;;;;;;10369629;28;20485;-85
2023/03/13 02:19:18;;;;;;;17.02;12.48;;;;;;;;;;10371543;28;20445;-85
2023/03/13 02:24:30;;;;;;;15.32;11.77;;;;;;;;;;10369583;28;20949;-85
2023/03/13 02:29:33;;;;;;;17.52;11.82;;;;;;;;;;10368314;28;20553;-84
2023/03/13 02:34:39;;;;;;;16.07;11.60;;;;;;;;;;10370739;28;20504;-84
2023/03/13 02:39:45;;;;;;;16.00;11.77;;;;;;;;;;10369803;28;20886;-85
2023/03/13 02:44:50;;;;;;;14.40;11.53;;;;;;;;;;10367812;28;20417;-85
2023/03/13 02:49:52;;;;;;;15.68;11.48;;;;;;;;;;10369406;28;20407;-85
2023/03/13 02:55:00;;;;;;;13.67;11.43;;;;;;;;;;10368771;28;20980;-84
2023/03/13 03:00:05;;;;;;;15.88;11.95;;;;;;;;;;10367720;28;20448;-84
2023/03/13 03:05:08;;;;;;;14.38;11.00;;;;;;;;;;10368845;28;20461;-85
2023/03/13 03:10:11;;;;;;;13.85;11.05;;;;;;;;;;10368734;28;20462;-84
2023/03/13 03:15:15;;;;;;;13.50;10.45;;;;;;;;;;10369512;28;20456;-84
2023/03/13 03:20:16;;;;;;;12.60;10.50;;;;;;;;;;10368566;28;20468;-84
2023/03/13 03:25:18;;;;;;;13.48;9.85;;;;;;;;;;10367299;28;20462;-85
2023/03/13 03:30:22;;;;;;;11.98;9.25;;;;;;;;;;10368030;28;20412;-85
2023/03/13 03:35:23;;;;;;;13.48;9.60;;;;;;;;;;10367863;28;20502;-84
2023/03/13 03:40:25;;;;;;;11.27;9.13;;;;;;;;;;10368389;28;20779;-85
2023/03/13 03:45:29;;;;;;;12.07;8.93;;;;;;;;;;10367883;28;20744;-85
2023/03/13 03:50:31;;;;;;;10.93;9.15;;;;;;;;;;10364747;28;20921;-85
2023/03/13 03:55:33;;;;;;;12.95;9.40;;;;;;;;;;10361144;28;20425;-85
2023/03/13 04:00:36;;;;;;;11.77;9.02;;;;;;;;;;10366451;28;20478;-84
2023/03/13 04:05:38;;;;;;;13.95;9.02;;;;;;;;;;10365862;28;21096;-85
2023/03/13 04:10:40;;;;;;;10.93;8.82;;;;;;;;;;10366768;28;20448;-85
2023/03/13 04:15:43;;;;;;;11.27;8.45;;;;;;;;;;10366670;28;20409;-85
2023/03/13 04:20:45;;;;;;;11.27;8.63;;;;;;;;;;10366360;28;20989;-85
2023/03/13 04:25:47;;;;;;;11.55;8.95;;;;;;;;;;10366543;28;20456;-84
2023/03/13 04:30:51;;;;;;;12.13;9.18;;;;;;;;;;10362332;28;20414;-85
2023/03/13 04:35:53;;;;;;;10.63;8.05;;;;;;;;;;10366294;28;20534;-84
2023/03/13 04:40:55;;;;;;;10.32;7.65;;;;;;;;;;10366375;28;20450;-85
2023/03/13 04:45:58;;;;;;;10.00;8.13;;;;;;;;;;10366404;28;20566;-84
2023/03/13 04:51:00;;;;;;;12.03;8.83;;;;;;;;;;10364851;28;20423;-85
2023/03/13 04:56:02;;;;;;;11.55;8.25;;;;;;;;;;10366519;28;20449;-84
2023/03/13 05:01:05;;;;;;;12.32;8.35;;;;;;;;;;10360227;28;20428;-85
2023/03/13 05:06:07;;;;;;;10.52;8.60;;;;;;;;;;10363511;28;20466;-85
2023/03/13 05:11:10;;;;;;;10.05;8.25;;;;;;;;;;10365863;28;20403;-85
2023/03/13 05:16:13;;;;;;;12.33;8.40;;;;;;;;;;10365700;28;20402;-85
2023/03/13 05:21:15;;;;;;;11.80;8.27;;;;;;;;;;10370446;28;20871;-85
2023/03/13 05:26:17;;;;;;;13.90;8.67;;;;;;;;;;10372877;28;20501;-85
2023/03/13 05:31:20;;;;;;;12.45;8.43;;;;;;;;;;10370999;28;20905;-84
2023/03/13 05:36:22;;;;;;;12.00;8.30;;;;;;;;;;10371149;28;20813;-84
2023/03/13 05:41:24;;;;;;;13.05;8.43;;;;;;;;;;10371728;28;20469;-84
2023/03/13 05:46:27;;;;;;;12.45;8.73;;;;;;;;;;10371755;28;20421;-85
2023/03/13 05:51:29;;;;;;;11.20;9.00;;;;;;;;;;10371104;28;20489;-84
2023/03/13 05:56:31;;;;;;;16.33;9.98;;;;;;;;;;10370760;28;20455;-85
2023/03/13 06:01:34;;;;;;;13.65;9.73;;;;;;;;;;10353158;28;20554;-85
2023/03/13 06:06:36;;;;;;;14.27;9.82;;;;;;;;;;10362935;28;20435;-84
2023/03/13 06:11:38;;;;;;;15.93;10.40;;;;;;;;;;10363876;28;20961;-85
2023/03/13 06:16:42;;;;;;;13.70;10.13;;;;;;;;;;10368191;28;20418;-85
2023/03/13 06:21:43;;;;;;;13.38;10.07;;;;;;;;;;10366995;28;20434;-85
2023/03/13 06:26:48;;;;;;;13.25;9.25;;;;;;;;;;10366440;28;20409;-85
2023/03/13 06:31:51;;;;;;;12.70;8.67;;;;;;;;;;10365809;28;20440;-83
2023/03/13 06:36:53;;;;;;;15.25;9.13;;;;;;;;;;10366211;28;20450;-84
2023/03/13 06:41:55;;;;;;;13.20;8.80;;;;;;;;;;10363631;28;20463;-85
2023/03/13 06:46:59;;;;;;;13.80;9.93;;;;;;;;;;10364490;28;20984;-84
2023/03/13 06:52:00;;;;;;;15.68;9.45;;;;;;;;;;10368098;28;20469;-84
2023/03/13 06:57:02;;;;;;;14.07;11.38;;;;;;;;;;10365953;28;20818;-84
2023/03/13 07:02:06;;;;;;;16.80;10.27;;;;;;;;;;10368412;28;20763;-84
2023/03/13 07:07:08;;;;;;;14.93;10.40;;;;;;;;;;10367868;28;20494;-85
2023/03/13 07:12:10;;;;;;;14.65;9.32;;;;;;;;;;10366372;28;20411;-85
2023/03/13 07:17:13;;;;;;;14.05;9.73;;;;;;;;;;10369583;28;20454;-84
2023/03/13 07:22:15;;;;;;;12.68;8.25;;;;;;;;;;10367230;28;20431;-84
2023/03/13 07:27:19;;;;;;;12.10;8.70;;;;;;;;;;10366931;28;20421;-84
2023/03/13 07:32:23;;;;;;;11.13;8.50;;;;;;;;;;10362570;28;20900;-84
2023/03/13 07:37:25;;;;;;;11.00;8.10;;;;;;;;;;10366472;28;20867;-84
2023/03/13 07:42:26;;;;;;;12.30;7.70;;;;;;;;;;10362470;28;20879;-84
2023/03/13 07:47:29;;;;;;;10.90;8.20;;;;;;;;;;10364641;28;20461;-84
2023/03/13 07:52:31;;;;;;;13.10;8.60;;;;;;;;;;10365831;28;20402;-84
2023/03/13 07:57:43;;;;;;;12.32;8.25;;;;;;;;;;10363146;28;20496;-84
2023/03/13 08:02:46;;;;;;;12.30;8.38;;;;;;;;;;10359033;28;20427;-84
2023/03/13 08:07:48;;;;;;;12.40;8.27;;;;;;;;;;10364574;28;20411;-84
2023/03/13 08:12:50;;;;;;;11.85;8.18;;;;;;;;;;10365333;28;20408;-84
2023/03/13 08:17:53;;;;;;;13.27;8.47;;;;;;;;;;10364655;28;20407;-84
2023/03/13 08:22:57;;;;;;;9.97;7.60;;;;;;;;;;10365810;28;20510;-84
2023/03/13 08:28:01;;;;;;;8.90;6.30;;;;;;;;;;10364539;28;20558;-84
2023/03/13 08:33:04;;;;;;;11.63;6.47;;;;;;;;;;10369215;28;20489;-85
2023/03/13 08:38:07;;;;;;;11.63;7.13;;;;;;;;;;10367486;28;20969;-84
2023/03/13 08:43:08;;;;;;;10.25;6.57;;;;;;;;;;10365817;28;20477;-84
2023/03/13 08:48:13;;;;;;;10.93;6.97;;;;;;;;;;10362730;28;20422;-84
2023/03/13 08:53:15;;;;;;;9.98;6.03;;;;;;;;;;10367610;28;20472;-84
2023/03/13 08:58:17;;;;;;;8.88;5.68;;;;;;;;;;10370807;28;20434;-84
2023/03/13 09:03:20;;;;;;;8.07;6.05;;;;;;;;;;10374551;28;20451;-83
2023/03/13 09:08:22;;;;;;;7.72;5.95;;;;;;;;;;10375406;28;20399;-84
2023/03/13 09:13:24;;;;;;;9.87;6.80;;;;;;;;;;10369403;28;20419;-84
2023/03/13 09:18:28;;;;;;;10.18;6.10;;;;;;;;;;10374901;28;20434;-84
2023/03/13 09:23:30;;;;;;;10.10;5.93;;;;;;;;;;10381628;23;20438;-85
2023/03/13 09:28:32;;;;;;;8.63;6.05;;;;;;;;;;10372841;28;20450;-83
2023/03/13 09:33:36;;;;;;;8.82;6.40;;;;;;;;;;10374046;28;20465;-83
2023/03/13 09:38:38;;;;;;;6.67;4.30;;;;;;;;;;10373211;28;20403;-83
2023/03/13 09:43:46;;;;;;;7.60;5.20;;;;;;;;;;10372441;28;20425;-83
2023/03/13 09:48:54;;;;;;;7.63;4.90;;;;;;;;;;10371456;28;20435;-84
2023/03/13 09:54:02;;;;;;;8.68;4.30;;;;;;;;;;10373291;28;20407;-83
2023/03/13 09:59:13;;;;;;;8.30;5.10;;;;;;;;;;10367289;28;20925;-83
2023/03/13 10:04:28;;;;;;;5.90;4.60;;;;;;;;;;10367401;28;20481;-84
2023/03/13 10:09:32;;;;;;;9.73;4.28;;;;;;;;;;10372540;28;20418;-84
2023/03/13 10:14:42;;;;;;;5.50;4.03;;;;;;;;;;10370679;28;20776;-84
2023/03/13 10:19:47;;;;;;;5.60;4.20;;;;;;;;;;10370162;28;20403;-84
2023/03/13 10:24:55;;;;;;;5.37;3.60;;;;;;;;;;10371286;28;20464;-83
2023/03/13 10:29:57;;;;;;;6.93;3.17;;;;;;;;;;10370302;28;20419;-84
2023/03/13 10:35:02;;;;;;;4.68;2.90;;;;;;;;;;10371468;28;20434;-85
2023/03/13 10:40:21;;;;;;;4.73;3.20;;;;;;;;;;10370866;28;20472;-84
2023/03/13 10:45:23;;;;;;;6.03;2.75;;;;;;;;;;10367303;28;20913;-84
2023/03/13 10:50:28;;;;;;;4.90;3.37;;;;;;;;;;10369185;28;20454;-84
2023/03/13 10:55:30;;;;;;;5.32;3.40;;;;;;;;;;10369574;28;20833;-84
2023/03/13 11:00:36;;;;;;;5.25;3.30;;;;;;;;;;10369878;28;20407;-83
2023/03/13 11:05:42;;;;;;;4.22;3.15;;;;;;;;;;10368304;28;20466;-84
2023/03/13 11:10:53;;;;;;;3.25;2.60;;;;;;;;;;10369805;28;20873;-84
2023/03/13 11:15:59;;;;;;;5.05;3.20;;;;;;;;;;10368152;28;20415;-84
2023/03/13 11:21:04;;;;;;;4.10;2.70;;;;;;;;;;10367122;28;20411;-84
2023/03/13 11:26:12;;;;;;;4.00;2.70;;;;;;;;;;10364165;28;20427;-84
2023/03/13 11:31:18;;;;;;;4.90;3.55;;;;;;;;;;10368055;28;20407;-84
2023/03/13 11:36:26;;;;;;;7.93;5.50;;;;;;;;;;10367527;28;20418;-84
2023/03/13 11:41:42;;;;;;;4.27;1.90;;;;;;;;;;10367147;28;20431;-84
2023/03/13 11:46:53;;;;;;;9.82;6.00;;;;;;;;;;10367086;28;20419;-84
2023/03/13 11:52:07;;;;;;;4.07;2.70;;;;;;;;;;10366452;28;20558;-84
2023/03/13 11:57:14;;;;;;;7.00;4.35;;;;;;;;;;10366210;28;20494;-84
2023/03/13 12:02:23;;;;;;;3.20;2.20;;;;;;;;;;10367501;28;20980;-84
2023/03/13 12:07:30;;;;;;;5.20;2.20;;;;;;;;;;10365559;28;20418;-84
2023/03/13 12:12:40;;;;;;;9.98;8.95;;;;;;;;;;10366230;28;21171;-84
2023/03/13 12:17:46;;;;;;;4.43;3.08;;;;;;;;;;10366528;28;20423;-85
2023/03/13 12:22:56;;;;;;;2.67;2.13;;;;;;;;;;10364302;28;20435;-84
2023/03/13 12:28:07;;;;;;;3.95;2.50;;;;;;;;;;10362348;28;20414;-85
2023/03/13 12:33:19;;;;;;;4.20;2.92;;;;;;;;;;10364251;28;20785;-85
2023/03/13 12:38:28;;;;;;;3.37;2.40;;;;;;;;;;10365222;28;20414;-85
2023/03/13 12:43:32;;;;;;;3.50;2.20;;;;;;;;;;10351984;28;20419;-85
2023/03/13 12:48:49;;;;;;;5.00;3.10;;;;;;;;;;10351020;28;20506;-86
2023/03/13 12:54:17;;;;;;;3.80;2.92;;;;;;;;;;10352236;28;20423;-86
2023/03/13 12:59:22;;;;;;;5.47;2.80;;;;;;;;;;10351225;28;20928;-85
2023/03/13 13:04:26;;;;;;;12.07;9.35;;;;;;;;;;10355304;28;20457;-85
2023/03/13 13:09:31;;;;;;;4.75;4.00;;;;;;;;;;10357448;28;20427;-85
2023/03/13 13:15:14;;;;;;;5.77;3.13;;;;;;;;;;10361394;28;20800;-85
2023/03/13 13:20:41;;;;;;;5.85;3.53;;;;;;;;;;10362603;28;20889;-85
2023/03/13 13:25:44;;;;;;;4.72;3.10;;;;;;;;;;10362598;28;20908;-85
2023/03/13 13:30:46;;;;;;;4.53;3.03;;;;;;;;;;10364326;28;20423;-86
2023/03/13 13:36:27;;;;;;;9.07;5.17;;;;;;;;;;10364970;28;20489;-85
2023/03/13 13:41:37;;;;;;;8.80;5.10;;;;;;;;;;10363697;28;20421;-85
2023/03/13 13:46:45;;;;;;;3.95;3.00;;;;;;;;;;10371700;28;20498;-86
2023/03/13 13:52:20;;;;;;;5.63;3.22;;;;;;;;;;10378134;28;20411;-85
2023/03/13 13:57:25;;;;;;;4.68;2.97;;;;;;;;;;10372458;28;20417;-86
2023/03/13 14:02:32;;;;;;;5.68;3.30;;;;;;;;;;10374204;28;20909;-86
2023/03/13 14:08:00;;;;;;;5.87;3.60;;;;;;;;;;10376243;28;20480;-86
2023/03/13 14:13:12;;;;;;;5.00;3.20;;;;;;;;;;10358470;28;20908;-86
2023/03/13 14:18:21;;;;;;;5.35;3.10;;;;;;;;;;10371055;28;20874;-86
2023/03/13 14:23:41;;;;;;;5.30;3.50;;;;;;;;;;10371863;28;20487;-85
2023/03/13 14:28:47;;;;;;;5.30;3.67;;;;;;;;;;10370704;28;20426;-86
2023/03/13 14:33:49;;;;;;;6.07;3.40;;;;;;;;;;10374655;28;20742;-85
2023/03/13 14:38:53;;;;;;;8.18;4.65;;;;;;;;;;10370272;28;20453;-85
2023/03/13 14:44:03;;;;;;;7.50;3.55;;;;;;;;;;10368142;28;20510;-85
2023/03/13 14:49:15;;;;;;;5.38;3.40;;;;;;;;;;10367067;28;20413;-85
2023/03/13 14:54:29;;;;;;;5.77;3.33;;;;;;;;;;10367547;28;20422;-84
2023/03/13 14:59:33;;;;;;;5.33;3.50;;;;;;;;;;10368405;28;20486;-85
2023/03/13 15:04:52;;;;;;;5.03;3.43;;;;;;;;;;10366889;28;20427;-84
2023/03/13 15:09:56;;;;;;;8.23;5.20;;;;;;;;;;10366295;28;20415;-85
2023/03/13 15:14:59;;;;;;;9.23;5.68;;;;;;;;;;10363975;28;20429;-84
2023/03/13 15:20:01;;;;;;;14.13;4.50;;;;;;;;;;10364579;28;20972;-84
2023/03/13 15:25:06;;;;;;;5.75;4.15;;;;;;;;;;10353416;28;20489;-83
2023/03/13 15:30:15;;;;;;;5.45;3.70;;;;;;;;;;10362130;28;20457;-84
2023/03/13 15:35:27;;;;;;;6.85;4.03;;;;;;;;;;10363619;28;20415;-84
2023/03/13 15:40:29;;;;;;;6.07;4.07;;;;;;;;;;10362968;28;20421;-84
2023/03/13 15:45:33;;;;;;;6.93;4.30;;;;;;;;;;10360950;28;20477;-84
2023/03/13 15:50:35;;;;;;;31.90;5.97;;;;;;;;;;10363037;28;20418;-85
2023/03/13 15:55:37;;;;;;;10.70;5.20;;;;;;;;;;10360447;28;20418;-85
2023/03/13 16:00:41;;;;;;;6.90;4.00;;;;;;;;;;10356043;28;20423;-85
2023/03/13 16:05:43;;;;;;;49.92;7.22;;;;;;;;;;10353590;28;20427;-86
2023/03/13 16:10:45;;;;;;;8.50;4.23;;;;;;;;;;10359783;28;20476;-85
2023/03/13 16:15:49;;;;;;;5.40;3.83;;;;;;;;;;10359401;28;20525;-86
2023/03/13 16:20:52;;;;;;;9.18;4.13;;;;;;;;;;10352593;28;20431;-85
2023/03/13 16:25:54;;;;;;;6.20;4.00;;;;;;;;;;10358706;28;20839;-85
2023/03/13 16:30:57;;;;;;;4.35;3.17;;;;;;;;;;10356321;28;20419;-85
2023/03/13 16:35:59;;;;;;;4.37;2.47;;;;;;;;;;10358127;28;20480;-84
2023/03/13 16:41:01;;;;;;;4.88;2.58;;;;;;;;;;10353200;28;20513;-85
2023/03/13 16:46:09;;;;;;;6.03;2.95;;;;;;;;;;10353667;28;20433;-84
2023/03/13 16:51:17;;;;;;;8.30;3.10;;;;;;;;;;10351848;28;20439;-84
2023/03/13 16:56:28;;;;;;;5.87;3.57;;;;;;;;;;10357176;28;20907;-84
2023/03/13 17:01:32;;;;;;;10.37;5.80;;;;;;;;;;10356516;28;20583;-83
2023/03/13 17:06:36;;;;;;;8.07;3.80;;;;;;;;;;10352095;28;20909;-84
2023/03/13 17:11:38;;;;;;;10.40;3.43;;;;;;;;;;10351831;28;20935;-85
2023/03/13 17:16:44;;;;;;;7.13;3.60;;;;;;;;;;10358349;28;21044;-84
2023/03/13 17:21:46;;;;;;;6.30;3.30;;;;;;;;;;10349958;28;20513;-85
2023/03/13 17:26:48;;;;;;;9.15;3.85;;;;;;;;;;10352063;28;20435;-85
2023/03/13 17:31:51;;;;;;;22.77;17.40;;;;;;;;;;10360274;28;20418;-84
2023/03/13 17:36:53;;;;;;;12.18;8.30;;;;;;;;;;10360060;28;20950;-84
2023/03/13 17:41:56;;;;;;;9.23;6.17;;;;;;;;;;10358711;28;20433;-85
2023/03/13 17:46:59;;;;;;;7.72;5.88;;;;;;;;;;10361661;28;20943;-85
2023/03/13 17:52:01;;;;;;;12.63;6.43;;;;;;;;;;10353425;28;20800;-84
2023/03/13 17:57:05;;;;;;;9.27;6.33;;;;;;;;;;10361356;28;20580;-85
2023/03/13 18:02:11;;;;;;;9.38;6.25;;;;;;;;;;10360503;28;20937;-83
2023/03/13 18:07:17;;;;;;;10.32;7.32;;;;;;;;;;10353762;28;21199;-85
2023/03/13 18:12:19;;;;;;;13.47;8.10;;;;;;;;;;10360571;28;20414;-84
2023/03/13 18:17:24;;;;;;;11.00;8.23;;;;;;;;;;10353352;28;20417;-84
2023/03/13 18:22:26;;;;;;;12.40;8.50;;;;;;;;;;10353232;28;20513;-84
2023/03/13 18:27:28;;;;;;;13.18;8.95;;;;;;;;;;10354378;28;20427;-83
2023/03/13 18:32:31;;;;;;;12.15;9.00;;;;;;;;;;10357448;28;20517;-84
2023/03/13 18:37:33;;;;;;;12.70;8.98;;;;;;;;;;10357675;28;20419;-84
2023/03/13 18:42:35;;;;;;;14.40;9.13;;;;;;;;;;10353932;28;20465;-84
2023/03/13 18:47:38;;;;;;;21.67;10.98;;;;;;;;;;10353711;28;20458;-84
2023/03/13 18:52:40;;;;;;;19.40;11.95;;;;;;;;;;10357698;28;20411;-86
2023/03/13 18:57:42;;;;;;;17.95;11.93;;;;;;;;;;10362130;28;20510;-85
2023/03/13 19:02:48;;;;;;;16.27;11.88;;;;;;;;;;10362289;28;20935;-85
2023/03/13 19:07:50;;;;;;;16.23;10.67;;;;;;;;;;10364925;28;20481;-85
2023/03/13 19:12:53;;;;;;;19.35;14.00;;;;;;;;;;10363251;28;20430;-84
2023/03/13 19:17:58;;;;;;;21.60;14.60;;;;;;;;;;10366176;28;20399;-84
2023/03/13 19:23:00;;;;;;;21.50;14.93;;;;;;;;;;10363091;28;20417;-84
2023/03/13 19:28:02;;;;;;;21.63;14.30;;;;;;;;;;10361007;28;20425;-84
2023/03/13 19:33:05;;;;;;;22.77;13.98;;;;;;;;;;10364879;28;20403;-84
2023/03/13 19:38:12;;;;;;;23.48;13.30;;;;;;;;;;10355004;28;21039;-86
2023/03/13 19:43:14;;;;;;;19.97;12.60;;;;;;;;;;10355673;28;20415;-85
2023/03/13 19:48:17;;;;;;;24.25;14.77;;;;;;;;;;10360877;28;20415;-85
2023/03/13 19:53:19;;;;;;;21.90;13.85;;;;;;;;;;10360897;28;21904;-85
2023/03/13 19:58:21;;;;;;;18.77;14.27;;;;;;;;;;10364490;28;20427;-85
2023/03/13 20:03:24;;;;;;;26.77;14.70;;;;;;;;;;10359216;28;21009;-85
2023/03/13 20:08:26;;;;;;;23.92;14.95;;;;;;;;;;10357263;28;20417;-85
2023/03/13 20:13:27;;;;;;;19.80;13.55;;;;;;;;;;10355468;28;20506;-85
2023/03/13 20:18:31;;;;;;;18.80;13.98;;;;;;;;;;10356359;28;20442;-85
2023/03/13 20:23:33;;;;;;;23.42;15.10;;;;;;;;;;10358394;28;20521;-85
2023/03/13 20:28:35;;;;;;;22.87;14.40;;;;;;;;;;10356453;28;20427;-85
2023/03/13 20:33:39;;;;;;;20.25;15.05;;;;;;;;;;10356044;28;20513;-84
2023/03/13 20:38:42;;;;;;;21.03;14.80;;;;;;;;;;10362438;28;20513;-85
2023/03/13 20:43:44;;;;;;;21.35;13.70;;;;;;;;;;10359434;28;20488;-86
2023/03/13 20:48:47;;;;;;;21.20;13.95;;;;;;;;;;10355704;28;20423;-86
2023/03/13 20:53:49;;;;;;;18.43;13.70;;;;;;;;;;10357110;28;20426;-85
2023/03/13 20:58:51;;;;;;;23.38;13.88;;;;;;;;;;10356076;28;20485;-86
2023/03/13 21:03:54;;;;;;;17.60;13.47;;;;;;;;;;10355707;28;20438;-83
2023/03/13 21:08:56;;;;;;;20.13;14.07;;;;;;;;;;10354076;28;20424;-86
2023/03/13 21:13:58;;;;;;;20.15;13.90;;;;;;;;;;10355527;28;20415;-85
2023/03/13 21:19:01;;;;;;;18.83;13.05;;;;;;;;;;10355256;28;20492;-85
2023/03/13 21:24:03;;;;;;;22.15;14.32;;;;;;;;;;10356383;28;20518;-85
2023/03/13 21:29:07;;;;;;;19.13;14.40;;;;;;;;;;10357586;28;20478;-85
2023/03/13 21:34:10;;;;;;;19.75;14.35;;;;;;;;;;10356346;28;20987;-85
2023/03/13 21:39:12;;;;;;;18.80;13.55;;;;;;;;;;10358776;28;20974;-85
2023/03/13 21:44:18;;;;;;;15.65;11.20;;;;;;;;;;10357805;28;20777;-85
2023/03/13 21:49:21;;;;;;;18.03;11.67;;;;;;;;;;10355636;28;20415;-86
2023/03/13 21:54:23;;;;;;;17.17;11.30;;;;;;;;;;10355836;28;20450;-85
2023/03/13 21:59:26;;;;;;;16.90;11.82;;;;;;;;;;10314219;28;20482;-84
2023/03/13 22:04:29;;;;;;;13.27;10.23;;;;;;;;;;10369920;28;20419;-86
2023/03/13 22:09:31;;;;;;;15.33;11.20;;;;;;;;;;10369952;28;20591;-85
2023/03/13 22:14:35;;;;;;;17.83;11.48;;;;;;;;;;10368339;28;21878;-85
2023/03/13 22:19:38;;;;;;;15.47;11.60;;;;;;;;;;10369560;28;20917;-85
2023/03/13 22:24:40;;;;;;;18.42;13.00;;;;;;;;;;10370655;28;20423;-86
2023/03/13 22:29:42;;;;;;;17.55;12.80;;;;;;;;;;10368468;28;20488;-86
2023/03/13 22:34:46;;;;;;;17.85;13.55;;;;;;;;;;10368935;28;20523;-85
2023/03/13 22:39:52;;;;;;;19.40;13.60;;;;;;;;;;10369575;28;20778;-86
2023/03/13 22:44:54;;;;;;;19.40;13.37;;;;;;;;;;10370918;28;20431;-85
2023/03/13 22:49:57;;;;;;;18.13;13.07;;;;;;;;;;10371041;28;20421;-84
2023/03/13 22:54:59;;;;;;;19.50;13.55;;;;;;;;;;10365010;28;20469;-85
2023/03/13 23:00:01;;;;;;;20.40;13.53;;;;;;;;;;10366320;28;20423;-84
2023/03/13 23:05:05;;;;;;;22.60;13.43;;;;;;;;;;10369773;28;20431;-85
2023/03/13 23:10:09;;;;;;;15.80;11.43;;;;;;;;;;10366295;28;20419;-84
2023/03/13 23:15:12;;;;;;;13.30;9.98;;;;;;;;;;10368683;28;20486;-84
2023/03/13 23:20:15;;;;;;;13.13;9.00;;;;;;;;;;10366824;28;20535;-84
2023/03/13 23:25:17;;;;;;;12.37;8.83;;;;;;;;;;10370282;28;20508;-84
2023/03/13 23:30:20;;;;;;;12.65;7.95;;;;;;;;;;10371827;28;20500;-84
2023/03/13 23:35:23;;;;;;;9.90;7.00;;;;;;;;;;10370368;28;20403;-84
2023/03/13 23:40:27;;;;;;;9.82;6.65;;;;;;;;;;10365664;28;20498;-84
2023/03/13 23:45:29;;;;;;;10.77;6.80;;;;;;;;;;10368521;28;20477;-84
2023/03/13 23:50:32;;;;;;;11.27;7.43;;;;;;;;;;10367295;28;20419;-84
2023/03/13 23:55:34;;;;;;;11.85;6.95;;;;;;;;;;10362004;28;20490;-83
